Time;durP1;ratioP1;P1;durP2;ratioP2;P2;SDS_P1;SDS_P2;PMS_P1;PMS_P2;Temp;Humidity;BMP_temperature;BMP_pressure;BME280_temperature;BME280_humidity;BME280_pressure;Samples;Min_cycle;Max_cycle;Signal;HPM_P1;HPM_P2
2022/07/21 00:01:15;;;;;;;7.60;4.10;;;;;;;23.86;42.85;100744.41;109118;1267;22107;-79
2022/07/21 00:03:47;;;;;;;6.20;4.20;;;;;;;23.87;42.81;100746.35;108618;1273;23596;-79
2022/07/21 00:06:16;;;;;;;7.30;5.30;;;;;;;23.86;42.96;100744.17;108716;1273;21985;-79
2022/07/21 00:08:45;;;;;;;10.50;4.80;;;;;;;23.83;42.98;100742.46;108461;1273;23117;-79
2022/07/21 00:11:14;;;;;;;9.60;4.80;;;;;;;23.80;43.09;100741.13;108736;1267;22036;-79
2022/07/21 00:13:44;;;;;;;5.60;4.90;;;;;;;23.74;43.18;100739.89;109133;1265;21995;-79
2022/07/21 00:16:14;;;;;;;8.50;4.30;;;;;;;23.70;43.41;100740.95;109203;1267;21994;-80
2022/07/21 00:18:51;;;;;;;5.80;4.40;;;;;;;23.67;43.55;100736.46;109107;1267;21981;-76
2022/07/21 00:21:20;;;;;;;6.80;5.00;;;;;;;23.63;43.73;100737.25;109288;1261;21968;-79
2022/07/21 00:23:49;;;;;;;8.60;4.30;;;;;;;23.57;43.96;100738.02;109807;1262;22763;-78
2022/07/21 00:26:18;;;;;;;7.90;4.70;;;;;;;23.51;44.33;100739.60;109981;1260;21966;-78
2022/07/21 00:28:49;;;;;;;9.90;4.90;;;;;;;23.47;44.60;100734.14;109837;1260;23137;-78
2022/07/21 00:31:18;;;;;;;6.00;4.10;;;;;;;23.42;44.67;100727.32;109819;1261;23646;-78
2022/07/21 00:33:50;;;;;;;7.90;4.20;;;;;;;23.34;44.82;100725.55;109563;1261;21969;-79
2022/07/21 00:36:22;;;;;;;5.40;4.70;;;;;;;23.25;44.86;100729.75;110141;1261;22008;-78
2022/07/21 00:38:51;;;;;;;9.10;5.20;;;;;;;23.16;45.06;100726.11;109966;1259;21984;-78
2022/07/21 00:41:23;;;;;;;6.80;4.30;;;;;;;23.10;45.36;100721.77;108939;1267;22515;-79
2022/07/21 00:43:52;;;;;;;7.10;4.30;;;;;;;23.05;45.45;100720.02;109200;1267;22154;-78
2022/07/21 00:46:21;;;;;;;7.60;4.30;;;;;;;22.99;45.50;100714.52;109261;1266;22021;-78
2022/07/21 00:48:51;;;;;;;6.30;4.40;;;;;;;22.92;45.59;100716.64;109124;1267;21974;-79
2022/07/21 00:51:20;;;;;;;8.70;4.60;;;;;;;22.89;45.72;100719.12;109465;1266;22143;-79
2022/07/21 00:53:52;;;;;;;10.20;4.20;;;;;;;22.86;45.86;100722.33;109240;1267;22138;-79
2022/07/21 00:56:21;;;;;;;5.10;4.10;;;;;;;22.82;45.85;100719.02;109384;1267;21946;-77
2022/07/21 00:58:53;;;;;;;5.90;4.40;;;;;;;22.77;45.96;100710.88;109229;1262;22018;-79
2022/07/21 01:01:25;;;;;;;5.90;4.60;;;;;;;22.71;46.01;100706.31;110215;1262;22441;-80
2022/07/21 01:03:58;;;;;;;5.50;4.40;;;;;;;22.68;46.29;100702.91;109965;1261;22759;-79
2022/07/21 01:06:35;;;;;;;8.30;4.90;;;;;;;22.66;46.57;100700.34;109598;1260;21964;-79
2022/07/21 01:09:04;;;;;;;6.00;4.50;;;;;;;22.65;46.72;100698.55;109669;1262;21984;-79
2022/07/21 01:11:40;;;;;;;10.30;5.60;;;;;;;22.63;46.81;100702.00;109280;1264;22097;-79
2022/07/21 01:14:09;;;;;;;7.10;5.00;;;;;;;22.61;46.96;100703.56;109256;1264;23583;-79
2022/07/21 01:16:45;;;;;;;5.80;5.00;;;;;;;22.59;47.04;100702.95;109492;1265;22443;-78
2022/07/21 01:19:16;;;;;;;8.20;4.40;;;;;;;22.58;47.18;100700.06;109299;1265;22024;-79
2022/07/21 01:21:48;;;;;;;7.30;5.10;;;;;;;22.54;47.37;100697.69;109190;1265;22749;-78
2022/07/21 01:24:17;;;;;;;12.10;6.10;;;;;;;22.51;47.51;100698.33;108724;1269;22753;-79
2022/07/21 01:26:50;;;;;;;7.10;5.10;;;;;;;22.50;47.76;100695.45;108723;1270;22343;-79
2022/07/21 01:29:24;;;;;;;11.50;5.70;;;;;;;22.49;47.88;100694.61;108794;1267;23589;-79
2022/07/21 01:31:53;;;;;;;10.00;5.90;;;;;;;22.45;47.80;100696.58;108989;1267;22972;-79
2022/07/21 01:34:27;;;;;;;16.00;6.70;;;;;;;22.41;47.91;100695.26;108963;1267;22113;-80
2022/07/21 01:36:56;;;;;;;10.60;5.40;;;;;;;22.35;48.06;100693.09;109328;1268;23737;-79
2022/07/21 01:42:15;;;;;;;9.40;5.30;;;;;;;22.24;48.50;100694.47;109304;1260;21984;-79
2022/07/21 01:44:49;;;;;;;8.60;5.40;;;;;;;22.21;48.58;100691.18;109297;1264;23073;-79
2022/07/21 01:47:23;;;;;;;6.90;5.10;;;;;;;22.17;48.68;100690.91;109275;1264;23083;-79
2022/07/21 01:49:52;;;;;;;10.30;5.80;;;;;;;22.14;48.79;100689.61;108951;1270;22354;-79
2022/07/21 01:52:21;;;;;;;9.80;5.00;;;;;;;22.12;48.87;100688.14;108816;1270;23720;-79
2022/07/21 01:54:51;;;;;;;7.30;5.00;;;;;;;22.09;48.89;100684.76;108877;1270;21995;-79
2022/07/21 01:57:20;;;;;;;10.60;5.80;;;;;;;22.07;48.91;100684.45;108900;1270;23096;-79
2022/07/21 01:59:49;;;;;;;6.30;5.50;;;;;;;22.05;49.04;100685.20;108895;1270;23136;-81
2022/07/21 02:02:21;;;;;;;8.20;5.30;;;;;;;22.02;49.15;100683.31;109026;1267;22078;-79
2022/07/21 02:04:54;;;;;;;9.70;5.40;;;;;;;21.96;49.41;100683.88;108800;1270;21982;-78
2022/07/21 02:07:23;;;;;;;10.30;5.80;;;;;;;21.92;49.56;100685.02;108719;1267;21996;-79
2022/07/21 02:09:52;;;;;;;7.80;5.40;;;;;;;21.90;49.60;100687.34;108757;1270;22377;-79
2022/07/21 02:12:21;;;;;;;8.70;5.80;;;;;;;21.87;49.60;100693.63;108445;1276;22105;-79
2022/07/21 02:14:50;;;;;;;13.70;5.70;;;;;;;21.85;49.88;100696.81;108423;1276;21989;-79
2022/07/21 02:17:19;;;;;;;8.20;6.10;;;;;;;21.84;49.88;100699.32;108410;1276;22798;-79
2022/07/21 02:19:48;;;;;;;8.40;6.00;;;;;;;21.81;49.88;100700.81;108446;1276;21975;-79
2022/07/21 02:22:22;;;;;;;11.50;6.20;;;;;;;21.76;49.93;100703.91;108428;1274;23762;-79
2022/07/21 02:24:52;;;;;;;6.70;5.50;;;;;;;21.73;49.96;100709.84;108599;1274;23044;-78
2022/07/21 02:27:21;;;;;;;11.80;5.60;;;;;;;21.69;50.09;100711.36;108753;1268;22440;-78
2022/07/21 02:29:52;;;;;;;6.90;5.00;;;;;;;21.65;50.12;100710.69;108993;1265;21978;-79
2022/07/21 02:32:23;;;;;;;11.80;5.00;;;;;;;21.59;50.17;100705.65;109214;1265;23592;-80
2022/07/21 02:34:55;;;;;;;9.50;5.70;;;;;;;21.54;50.15;100701.23;109459;1265;24025;-79
2022/07/21 02:37:31;;;;;;;8.80;6.20;;;;;;;21.49;50.21;100703.47;109362;1262;22047;-79
2022/07/21 02:40:00;;;;;;;7.90;5.00;;;;;;;21.46;50.37;100703.63;109547;1261;21933;-78
2022/07/21 02:42:29;;;;;;;7.90;5.90;;;;;;;21.43;50.50;100703.00;109994;1259;21976;-78
2022/07/21 02:44:58;;;;;;;7.50;5.30;;;;;;;21.42;50.53;100704.11;109833;1260;23087;-79
2022/07/21 02:47:27;;;;;;;8.40;6.20;;;;;;;21.39;50.56;100704.23;109884;1259;22181;-80
2022/07/21 02:49:56;;;;;;;6.80;6.00;;;;;;;21.33;50.68;100710.95;109873;1261;21968;-80
2022/07/21 02:52:28;;;;;;;7.60;5.60;;;;;;;21.29;50.86;100711.96;110024;1259;21972;-80
2022/07/21 02:55:00;;;;;;;11.00;5.90;;;;;;;21.28;50.97;100717.92;109685;1262;23570;-79
2022/07/21 02:57:29;;;;;;;7.60;6.10;;;;;;;21.30;51.09;100722.74;109861;1260;23768;-78
2022/07/21 02:59:58;;;;;;;11.40;5.70;;;;;;;21.30;51.13;100719.52;109835;1260;22199;-80
2022/07/21 03:02:29;;;;;;;7.10;5.80;;;;;;;21.28;51.21;100715.98;109718;1260;23059;-79
2022/07/21 03:04:58;;;;;;;9.70;6.60;;;;;;;21.26;51.24;100713.94;109595;1262;22053;-79
2022/07/21 03:07:30;;;;;;;11.00;5.80;;;;;;;21.26;51.49;100711.19;109820;1262;22022;-79
2022/07/21 03:09:59;;;;;;;8.80;5.40;;;;;;;21.24;51.36;100708.98;109784;1259;21972;-79
2022/07/21 03:12:28;;;;;;;9.50;5.60;;;;;;;21.19;51.62;100706.65;110050;1260;23088;-79
2022/07/21 03:14:58;;;;;;;11.90;6.30;;;;;;;21.16;51.75;100705.98;110252;1259;23724;-79
2022/07/21 03:17:27;;;;;;;9.70;6.50;;;;;;;21.12;51.81;100700.84;109606;1262;21966;-80
2022/07/21 03:19:57;;;;;;;8.90;6.30;;;;;;;21.10;51.88;100698.63;110248;1259;21977;-79
2022/07/21 03:22:45;;;;;;;6.30;5.70;;;;;;;21.08;51.93;100700.85;109709;1262;21970;-79
2022/07/21 03:25:39;;;;;;;7.90;5.70;;;;;;;21.06;52.00;100698.16;109856;1262;22298;-80
2022/07/21 03:28:14;;;;;;;7.40;6.50;;;;;;;21.05;52.23;100695.89;109519;1261;22665;-80
2022/07/21 03:30:44;;;;;;;8.80;6.20;;;;;;;21.06;52.10;100698.53;110251;1261;23582;-79
2022/07/21 03:33:13;;;;;;;7.60;5.80;;;;;;;21.04;52.18;100704.17;109870;1262;23372;-80
2022/07/21 03:35:43;;;;;;;8.70;6.40;;;;;;;21.02;52.38;100713.54;110013;1261;22021;-79
2022/07/21 03:38:12;;;;;;;10.20;7.60;;;;;;;21.03;52.40;100713.17;109999;1261;23693;-78
2022/07/21 03:40:45;;;;;;;10.60;6.80;;;;;;;21.04;52.48;100708.15;109873;1261;21985;-78
2022/07/21 03:43:13;;;;;;;10.70;7.60;;;;;;;21.05;52.55;100706.61;109769;1262;21978;-79
2022/07/21 03:45:43;;;;;;;14.20;7.60;;;;;;;21.07;52.77;100702.86;109259;1267;22280;-78
2022/07/21 03:48:12;;;;;;;8.60;6.50;;;;;;;21.09;52.66;100705.27;109212;1267;21991;-79
2022/07/21 03:50:42;;;;;;;14.30;6.80;;;;;;;21.09;52.77;100704.60;109188;1267;23828;-79
2022/07/21 03:53:11;;;;;;;13.00;7.40;;;;;;;21.11;52.84;100703.88;108809;1270;25099;-77
2022/07/21 03:55:40;;;;;;;12.60;6.80;;;;;;;21.14;52.94;100704.17;108783;1273;22751;-78
2022/07/21 03:58:09;;;;;;;15.20;7.40;;;;;;;21.15;52.88;100708.48;108946;1271;21994;-80
2022/07/21 04:00:43;;;;;;;11.40;6.20;;;;;;;21.15;53.05;100703.92;108774;1270;23049;-78
2022/07/21 04:03:13;;;;;;;10.00;7.00;;;;;;;21.19;53.14;100706.28;108907;1267;21971;-79
2022/07/21 04:05:43;;;;;;;13.30;7.20;;;;;;;21.20;52.99;100708.73;108732;1273;23043;-79
2022/07/21 04:08:14;;;;;;;9.10;6.70;;;;;;;21.21;53.01;100711.66;108677;1270;22830;-79
2022/07/21 04:10:44;;;;;;;11.00;6.40;;;;;;;21.24;53.10;100715.34;109058;1267;21971;-79
2022/07/21 04:13:13;;;;;;;9.80;7.20;;;;;;;21.29;53.33;100716.11;109030;1267;24067;-79
2022/07/21 04:15:42;;;;;;;12.20;8.20;;;;;;;21.35;53.36;100719.74;108923;1267;21976;-79
2022/07/21 04:18:13;;;;;;;11.70;6.60;;;;;;;21.41;53.23;100718.02;108478;1276;23879;-79
2022/07/21 04:20:43;;;;;;;8.60;6.70;;;;;;;21.44;53.10;100719.73;108707;1273;23655;-79
2022/07/21 04:23:12;;;;;;;10.80;7.10;;;;;;;21.46;53.07;100719.35;108725;1270;22773;-79
2022/07/21 04:25:41;;;;;;;16.00;7.50;;;;;;;21.49;53.23;100716.11;108848;1270;21985;-79
2022/07/21 04:28:11;;;;;;;9.50;7.70;;;;;;;21.52;53.12;100718.13;108716;1273;22196;-79
2022/07/21 04:30:41;;;;;;;13.70;6.60;;;;;;;21.56;53.09;100721.88;108773;1273;23611;-79
2022/07/21 04:33:10;;;;;;;9.20;6.30;;;;;;;21.62;53.11;100726.87;108750;1273;22059;-79
2022/07/21 04:35:40;;;;;;;11.20;6.30;;;;;;;21.70;53.06;100726.55;108845;1267;21982;-80
2022/07/21 04:38:10;;;;;;;9.60;6.50;;;;;;;21.79;52.97;100729.69;109271;1267;21983;-80
2022/07/21 04:40:42;;;;;;;9.90;8.20;;;;;;;21.88;52.86;100730.60;109049;1268;21977;-79
2022/07/21 04:43:11;;;;;;;18.70;7.50;;;;;;;21.97;52.65;100730.81;109175;1267;23097;-79
2022/07/21 04:45:41;;;;;;;20.60;6.90;;;;;;;22.06;52.59;100719.98;109211;1261;23049;-80
2022/07/21 04:48:10;;;;;;;9.10;5.90;;;;;;;22.12;52.43;100716.23;109941;1261;23644;-80
2022/07/21 04:50:41;;;;;;;13.70;6.20;;;;;;;22.17;52.37;100708.19;109636;1261;22948;-79
2022/07/21 04:53:11;;;;;;;11.40;6.60;;;;;;;22.22;52.37;100705.48;109937;1261;22191;-78
2022/07/21 04:55:40;;;;;;;12.20;7.00;;;;;;;22.31;52.13;100705.65;109372;1262;21975;-79
2022/07/21 04:58:09;;;;;;;13.60;7.10;;;;;;;22.40;51.93;100706.59;109872;1261;23031;-79
2022/07/21 05:00:38;;;;;;;10.20;7.10;;;;;;;22.49;51.76;100706.67;109645;1261;21988;-79
2022/07/21 05:03:07;;;;;;;14.50;6.40;;;;;;;22.60;51.45;100712.77;109610;1261;24031;-76
2022/07/21 05:05:36;;;;;;;13.90;6.00;;;;;;;22.70;51.30;100709.41;109947;1261;22036;-79
2022/07/21 05:08:05;;;;;;;8.60;5.70;;;;;;;22.82;51.08;100714.88;109776;1261;22651;-79
2022/07/21 05:10:34;;;;;;;11.20;6.80;;;;;;;22.93;50.88;100715.27;109831;1261;23679;-80
2022/07/21 05:13:03;;;;;;;9.30;6.30;;;;;;;23.04;50.57;100710.79;109745;1263;23730;-80
2022/07/21 05:15:32;;;;;;;11.20;5.90;;;;;;;23.14;50.39;100716.38;109818;1261;23019;-80
2022/07/21 05:18:07;;;;;;;9.40;6.10;;;;;;;23.28;50.18;100715.96;109785;1261;21969;-80
2022/07/21 05:20:36;;;;;;;8.60;6.20;;;;;;;23.44;49.86;100715.55;109660;1261;21969;-79
2022/07/21 05:23:05;;;;;;;11.60;5.70;;;;;;;23.62;49.91;100715.89;109640;1261;23572;-80
2022/07/21 05:25:37;;;;;;;8.60;5.20;;;;;;;23.82;49.46;100718.38;109214;1267;23588;-80
2022/07/21 05:28:07;;;;;;;9.30;5.50;;;;;;;24.01;48.96;100721.69;109407;1267;24569;-78
2022/07/21 05:30:42;;;;;;;5.90;5.00;;;;;;;24.22;48.44;100726.25;108975;1267;22045;-80
2022/07/21 05:33:11;;;;;;;6.90;5.00;;;;;;;24.43;47.85;100727.69;109520;1265;22407;-81
2022/07/21 05:35:43;;;;;;;8.00;5.00;;;;;;;24.65;47.40;100730.23;109266;1264;23705;-80
2022/07/21 05:38:14;;;;;;;7.30;4.80;;;;;;;24.87;46.88;100728.21;109681;1264;22838;-80
2022/07/21 05:40:46;;;;;;;9.80;5.50;;;;;;;25.11;46.59;100729.18;109352;1264;21975;-80
2022/07/21 05:43:15;;;;;;;;;;;;;;;25.38;46.26;100734.32;109584;1262;22060;-80
2022/07/21 05:45:44;;;;;;;10.90;5.00;;;;;;;25.60;45.98;100734.34;109766;1261;22014;-80
2022/07/21 05:48:14;;;;;;;7.60;5.80;;;;;;;25.87;45.70;100738.68;110018;1260;22063;-80
2022/07/21 05:50:47;;;;;;;12.70;8.10;;;;;;;26.16;44.77;100747.38;109808;1261;21975;-81
2022/07/21 05:53:16;;;;;;;10.50;5.00;;;;;;;26.45;44.49;100748.96;109930;1261;21977;-79
2022/07/21 05:55:45;;;;;;;6.50;5.40;;;;;;;26.80;44.26;100751.87;109948;1261;21985;-74
2022/07/21 05:58:15;;;;;;;8.30;5.30;;;;;;;27.15;43.42;100754.74;109760;1260;23058;-74
2022/07/21 06:01:07;;;;;;;8.00;4.90;;;;;;;27.52;43.03;100754.04;109781;1262;22940;-74
2022/07/21 06:03:36;;;;;;;8.50;4.70;;;;;;;27.92;42.41;100756.98;109688;1260;23067;-74
2022/07/21 06:06:05;;;;;;;;;;;;;;;28.32;41.67;100758.23;109790;1262;22405;-75
2022/07/21 06:08:36;;;;;;;8.10;5.60;;;;;;;28.59;40.64;100759.77;109752;1260;22735;-75
2022/07/21 06:11:07;;;;;;;8.00;5.00;;;;;;;28.90;40.34;100755.02;109983;1262;21987;-74
2022/07/21 06:13:39;;;;;;;8.10;4.90;;;;;;;29.22;39.15;100751.80;109232;1265;21980;-77
2022/07/21 06:16:10;;;;;;;7.50;4.30;;;;;;;29.44;38.19;100748.37;109152;1264;23065;-79
2022/07/21 06:18:39;;;;;;;9.80;4.70;;;;;;;29.68;37.87;100748.47;109364;1264;23215;-79
2022/07/21 06:21:12;;;;;;;19.70;4.70;;;;;;;29.93;37.28;100743.44;109009;1267;21995;-79
2022/07/21 06:23:44;;;;;;;8.60;5.10;;;;;;;30.12;36.42;100744.12;108932;1269;21996;-79
2022/07/21 06:26:13;;;;;;;11.20;5.10;;;;;;;30.21;35.53;100744.86;109090;1267;23042;-79
2022/07/21 06:28:42;;;;;;;8.20;5.00;;;;;;;30.26;35.59;100744.64;108951;1267;22097;-79
2022/07/21 06:31:11;;;;;;;8.10;4.70;;;;;;;30.37;35.31;100747.86;109588;1263;22734;-78
2022/07/21 06:33:40;;;;;;;8.50;5.30;;;;;;;30.54;35.42;100746.50;109646;1263;23690;-78
2022/07/21 06:36:10;;;;;;;9.50;5.60;;;;;;;30.86;35.32;100748.66;109608;1263;23000;-80
2022/07/21 06:38:39;;;;;;;9.30;4.90;;;;;;;31.15;34.41;100745.90;109614;1263;23085;-78
2022/07/21 06:41:13;;;;;;;11.40;5.00;;;;;;;31.37;33.92;100746.84;109636;1263;22473;-78
2022/07/21 06:43:42;;;;;;;10.40;4.70;;;;;;;31.62;34.06;100741.14;109689;1263;22215;-77
2022/07/21 06:46:11;;;;;;;9.40;5.00;;;;;;;31.95;33.71;100739.75;109747;1262;23630;-78
2022/07/21 06:48:55;;;;;;;8.00;4.70;;;;;;;32.20;32.76;100736.16;109560;1263;24253;-79
2022/07/21 06:51:27;;;;;;;9.80;4.60;;;;;;;32.34;32.09;100736.05;109542;1264;22051;-78
2022/07/21 06:53:56;;;;;;;10.10;4.80;;;;;;;32.41;31.67;100733.48;109715;1261;23643;-78
2022/07/21 06:56:30;;;;;;;6.30;4.60;;;;;;;32.34;31.58;100729.48;109888;1261;21987;-79
2022/07/21 06:58:59;;;;;;;8.70;4.90;;;;;;;32.32;31.83;100728.98;109816;1260;21998;-80
2022/07/21 07:01:33;;;;;;;9.90;5.00;;;;;;;32.40;31.54;100728.39;109670;1261;21971;-78
2022/07/21 07:04:04;;;;;;;35.00;7.00;;;;;;;32.54;31.51;100726.31;108940;1269;22001;-79
2022/07/21 07:06:36;;;;;;;9.10;4.80;;;;;;;32.70;31.30;100727.77;108952;1267;23642;-79
2022/07/21 07:09:08;;;;;;;6.40;4.90;;;;;;;32.73;30.85;100724.80;108804;1270;22108;-75
2022/07/21 07:11:37;;;;;;;7.00;4.70;;;;;;;32.69;30.74;100722.00;108825;1269;22068;-79
2022/07/21 07:14:08;;;;;;;12.30;4.40;;;;;;;32.70;30.83;100725.48;108896;1269;21996;-80
2022/07/21 07:16:47;;;;;;;5.20;4.70;;;;;;;32.73;30.82;100723.71;108821;1270;22731;-79
2022/07/21 07:19:16;;;;;;;11.20;4.70;;;;;;;32.83;31.13;100725.86;108969;1266;21994;-79
2022/07/21 07:21:45;;;;;;;7.90;4.80;;;;;;;33.08;31.31;100725.09;109362;1261;23038;-79
2022/07/21 07:24:16;;;;;;;10.10;4.60;;;;;;;33.31;30.60;100727.88;109854;1261;23613;-80
2022/07/21 07:26:48;;;;;;;10.60;4.00;;;;;;;33.45;30.34;100727.77;109975;1261;21965;-83
2022/07/21 07:29:17;;;;;;;9.50;4.80;;;;;;;33.67;30.18;100728.59;109418;1260;21970;-79
2022/07/21 07:31:48;;;;;;;9.40;5.00;;;;;;;33.78;29.48;100730.55;109135;1265;21996;-79
2022/07/21 07:34:17;;;;;;;9.50;5.10;;;;;;;33.85;29.62;100728.39;109296;1265;23049;-79
2022/07/21 07:36:46;;;;;;;8.30;4.50;;;;;;;33.95;29.45;100728.34;109563;1265;23080;-79
2022/07/21 07:39:15;;;;;;;11.10;5.30;;;;;;;34.13;29.26;100730.92;109064;1265;21973;-78
2022/07/21 07:41:45;;;;;;;8.90;4.30;;;;;;;34.28;28.81;100729.46;109247;1265;22677;-78
2022/07/21 07:44:14;;;;;;;10.40;5.10;;;;;;;34.48;29.04;100730.98;109326;1267;21996;-78
2022/07/21 07:46:42;;;;;;;7.00;4.00;;;;;;;34.68;28.31;100735.73;109049;1266;22756;-80
2022/07/21 07:49:11;;;;;;;8.00;4.10;;;;;;;34.62;28.13;100732.95;109046;1262;22171;-79
2022/07/21 07:51:48;;;;;;;4.80;4.30;;;;;;;34.56;27.89;100730.27;109139;1267;22145;-78
2022/07/21 07:54:17;;;;;;;6.40;3.90;;;;;;;34.56;27.30;100727.20;109198;1267;24331;-79
2022/07/21 07:56:46;;;;;;;6.40;3.60;;;;;;;34.51;26.96;100725.69;109168;1267;23783;-78
2022/07/21 07:59:15;;;;;;;7.30;3.70;;;;;;;34.51;27.45;100726.23;109183;1267;23654;-80
2022/07/21 08:01:44;;;;;;;5.70;3.90;;;;;;;34.63;27.35;100727.60;109084;1266;23691;-79
2022/07/21 08:04:14;;;;;;;6.50;4.10;;;;;;;34.78;27.38;100731.45;109013;1267;22067;-78
2022/07/21 08:06:44;;;;;;;6.10;3.90;;;;;;;35.04;27.65;100731.06;109227;1267;21975;-79
2022/07/21 08:09:14;;;;;;;5.50;3.90;;;;;;;35.27;26.82;100730.77;109198;1267;21971;-79
2022/07/21 08:11:47;;;;;;;4.80;3.90;;;;;;;35.35;26.29;100729.79;109113;1266;22407;-80
2022/07/21 08:14:18;;;;;;;6.60;5.60;;;;;;;35.31;25.77;100728.38;109379;1267;22045;-81
2022/07/21 08:16:48;;;;;;;6.20;4.20;;;;;;;35.30;26.19;100730.56;109603;1261;24410;-78
2022/07/21 08:19:17;;;;;;;6.30;4.20;;;;;;;35.39;26.01;100729.00;109647;1262;22013;-80
2022/07/21 08:21:54;;;;;;;7.00;3.90;;;;;;;35.41;25.75;100730.81;109682;1263;23690;-80
2022/07/21 08:24:42;;;;;;;6.00;3.70;;;;;;;35.39;25.73;100727.85;109567;1264;22954;-78
2022/07/21 08:27:11;;;;;;;9.10;4.70;;;;;;;35.48;25.87;100723.30;109576;1263;23693;-80
2022/07/21 08:29:40;;;;;;;7.00;3.80;;;;;;;35.68;26.26;100721.17;109567;1262;22000;-79
2022/07/21 08:32:09;;;;;;;5.60;3.60;;;;;;;35.94;25.94;100723.38;109580;1264;21973;-79
2022/07/21 08:34:39;;;;;;;4.80;3.30;;;;;;;36.05;25.03;100717.73;109534;1264;21985;-78
2022/07/21 08:37:08;;;;;;;6.90;3.60;;;;;;;36.09;24.93;100713.92;109183;1264;23750;-80
2022/07/21 08:39:37;;;;;;;7.20;4.40;;;;;;;36.15;24.84;100709.28;109479;1263;21967;-79
2022/07/21 08:42:09;;;;;;;8.10;4.20;;;;;;;36.34;25.07;100705.59;109531;1264;22046;-80
2022/07/21 08:44:40;;;;;;;10.40;4.90;;;;;;;36.64;24.96;100707.28;109360;1269;22027;-80
2022/07/21 08:47:14;;;;;;;5.40;4.80;;;;;;;36.86;24.70;100710.80;109361;1267;23070;-79
2022/07/21 08:49:47;;;;;;;8.60;4.60;;;;;;;36.98;24.03;100706.61;109171;1267;21986;-81
2022/07/21 08:52:18;;;;;;;9.10;4.70;;;;;;;36.90;23.76;100703.55;109247;1267;24428;-79
2022/07/21 08:54:48;;;;;;;6.80;3.90;;;;;;;36.95;24.23;100701.27;109111;1268;21999;-79
2022/07/21 08:57:19;;;;;;;4.40;4.00;;;;;;;37.04;23.92;100694.71;108964;1270;22032;-80
2022/07/21 08:59:51;;;;;;;7.40;3.70;;;;;;;37.19;23.98;100690.85;108988;1271;22949;-81
2022/07/21 09:02:33;;;;;;;6.00;3.80;;;;;;;37.46;23.85;100693.34;108543;1270;24477;-81
2022/07/21 09:05:04;;;;;;;6.90;4.00;;;;;;;37.53;23.09;100687.48;108876;1270;25050;-81
2022/07/21 09:08:00;;;;;;;5.60;3.80;;;;;;;37.56;23.00;100686.36;108755;1271;22389;-78
2022/07/21 09:10:36;;;;;;;6.50;3.50;;;;;;;37.53;22.85;100680.57;108775;1273;22266;-79
2022/07/21 09:13:07;;;;;;;8.60;4.10;;;;;;;37.38;22.70;100675.48;108752;1273;23761;-79
2022/07/21 09:15:38;;;;;;;10.30;3.70;;;;;;;37.30;23.07;100672.06;108944;1267;21970;-80
2022/07/21 09:18:15;;;;;;;4.80;3.30;;;;;;;37.40;23.15;100672.54;108901;1270;23774;-78
2022/07/21 09:20:53;;;;;;;3.60;3.10;;;;;;;37.40;22.13;100671.77;109173;1264;23069;-77
2022/07/21 09:23:25;;;;;;;9.50;3.70;;;;;;;37.27;22.01;100673.70;108915;1267;22247;-79
2022/07/21 09:25:58;;;;;;;8.80;4.00;;;;;;;37.29;22.43;100675.70;108872;1270;23608;-79
2022/07/21 09:28:29;;;;;;;5.80;3.30;;;;;;;37.26;22.19;100680.24;108827;1271;23607;-81
2022/07/21 09:31:08;;;;;;;6.30;3.30;;;;;;;37.30;21.91;100679.82;108768;1270;23077;-79
2022/07/21 09:33:46;;;;;;;7.30;3.10;;;;;;;37.28;21.99;100674.97;108782;1271;22251;-80
2022/07/21 09:36:20;;;;;;;3.90;3.40;;;;;;;37.30;22.05;100674.81;108748;1273;24439;-81
2022/07/21 09:39:00;;;;;;;5.00;2.80;;;;;;;37.37;21.70;100674.25;108921;1271;21994;-80
2022/07/21 09:41:30;;;;;;;;;;;;;;;37.49;21.42;100671.78;109043;1263;21976;-79
2022/07/21 09:44:08;;;;;;;6.30;3.30;;;;;;;37.46;21.29;100669.02;109199;1265;22382;-79
2022/07/21 09:47:11;;;;;;;5.90;3.10;;;;;;;37.55;21.21;100664.90;109358;1263;21974;-80
2022/07/21 09:49:41;;;;;;;;;;;;;;;37.62;20.47;100658.13;109566;1263;23738;-83
2022/07/21 09:52:37;;;;;;;6.50;2.70;;;;;;;37.34;20.11;100652.29;109776;1263;21993;-85
2022/07/21 09:55:16;;;;;;;6.00;2.50;;;;;;;37.20;20.35;100644.33;109790;1263;21994;-81
2022/07/21 09:57:52;;;;;;;9.00;3.90;;;;;;;37.15;19.88;100641.40;109097;1270;21998;-82
2022/07/21 10:00:24;;;;;;;6.90;3.10;;;;;;;37.07;19.97;100638.84;109066;1269;23852;-81
2022/07/21 10:02:57;;;;;;;7.60;3.20;;;;;;;37.06;19.49;100640.05;109010;1267;23615;-82
2022/07/21 10:05:28;;;;;;;5.50;3.10;;;;;;;36.94;19.79;100641.11;109135;1269;23703;-84
2022/07/21 10:08:05;;;;;;;5.60;2.90;;;;;;;36.84;19.69;100642.05;108749;1270;23135;-84
2022/07/21 10:10:45;;;;;;;6.80;3.20;;;;;;;36.76;19.65;100640.98;108997;1272;22018;-84
2022/07/21 10:13:38;;;;;;;5.70;3.90;;;;;;;36.81;20.34;100635.27;108909;1270;21984;-79
2022/07/21 10:16:12;;;;;;;6.90;3.70;;;;;;;36.99;20.46;100633.82;109107;1272;23723;-82
2022/07/21 10:19:03;;;;;;;11.30;3.80;;;;;;;37.14;20.62;100632.54;108481;1275;22478;-80
2022/07/21 10:22:02;;;;;;;9.40;3.70;;;;;;;37.27;20.40;100634.56;108617;1273;23060;-79
2022/07/21 10:24:36;;;;;;;5.30;3.00;;;;;;;37.24;20.27;100634.70;108683;1276;23706;-81
2022/07/21 10:27:09;;;;;;;8.00;3.40;;;;;;;37.18;19.93;100632.66;108335;1279;23665;-81
2022/07/21 10:29:59;;;;;;;5.10;3.10;;;;;;;37.20;19.54;100632.11;108461;1279;23608;-81
2022/07/21 10:32:48;;;;;;;10.70;3.80;;;;;;;37.20;19.37;100630.79;108323;1280;22870;-81
2022/07/21 10:35:30;;;;;;;6.50;4.40;;;;;;;37.12;19.61;100626.23;108485;1280;23099;-81
2022/07/21 10:38:02;;;;;;;6.00;3.10;;;;;;;37.08;19.34;100624.05;108412;1275;22498;-80
2022/07/21 10:40:32;;;;;;;5.00;2.90;;;;;;;37.07;19.10;100624.73;108659;1276;21999;-79
2022/07/21 10:43:01;;;;;;;6.50;3.80;;;;;;;37.03;18.61;100617.83;108637;1276;22456;-80
2022/07/21 10:45:34;;;;;;;5.10;2.90;;;;;;;36.98;18.61;100622.63;108612;1273;21987;-81
2022/07/21 10:48:26;;;;;;;8.00;3.50;;;;;;;36.88;18.55;100624.06;108677;1273;23737;-79
2022/07/21 10:50:58;;;;;;;7.40;3.80;;;;;;;36.92;18.63;100619.55;108869;1268;22035;-81
2022/07/21 10:53:27;;;;;;;7.10;2.70;;;;;;;36.95;18.66;100616.98;108991;1270;22308;-81
2022/07/21 10:55:57;;;;;;;10.60;3.20;;;;;;;36.85;18.37;100612.85;108987;1267;21962;-80
2022/07/21 10:58:34;;;;;;;8.60;3.40;;;;;;;36.74;18.20;100611.52;108713;1273;23082;-80
2022/07/21 11:01:03;;;;;;;7.50;3.80;;;;;;;36.68;18.15;100609.15;108859;1270;23045;-79
2022/07/21 11:03:42;;;;;;;6.20;3.20;;;;;;;36.61;18.02;100612.36;109456;1267;21995;-82
2022/07/21 11:06:36;;;;;;;7.00;3.60;;;;;;;36.48;18.37;100609.45;109066;1267;22746;-80
2022/07/21 11:09:06;;;;;;;6.50;3.50;;;;;;;36.44;18.71;100610.63;108504;1276;22877;-80
2022/07/21 11:11:58;;;;;;;8.50;3.40;;;;;;;36.39;18.39;100608.05;108472;1276;21997;-79
2022/07/21 11:14:41;;;;;;;6.30;3.10;;;;;;;36.16;18.04;100600.99;108126;1280;22048;-80
2022/07/21 11:17:25;;;;;;;5.60;3.30;;;;;;;36.04;18.34;100598.62;108046;1282;23111;-80
2022/07/21 11:19:57;;;;;;;8.00;3.60;;;;;;;36.01;18.41;100597.02;108097;1280;21998;-80
2022/07/21 11:22:29;;;;;;;7.10;3.10;;;;;;;36.01;18.34;100599.60;108178;1282;22001;-81
2022/07/21 11:25:08;;;;;;;8.00;2.90;;;;;;;35.99;17.99;100598.66;107986;1285;22008;-81
2022/07/21 11:27:40;;;;;;;6.50;2.80;;;;;;;35.92;17.95;100592.48;108278;1282;21968;-81
2022/07/21 11:30:11;;;;;;;9.50;3.30;;;;;;;35.87;18.18;100586.90;108355;1282;22065;-80
2022/07/21 11:32:50;;;;;;;13.70;3.80;;;;;;;35.77;17.97;100585.30;108368;1277;23072;-81
2022/07/21 11:35:38;;;;;;;12.60;4.40;;;;;;;35.64;18.40;100582.59;108456;1274;22001;-80
2022/07/21 11:38:06;;;;;;;6.30;3.10;;;;;;;35.59;18.74;100584.04;108696;1273;23118;-80
2022/07/21 11:40:36;;;;;;;8.90;3.40;;;;;;;35.52;18.93;100581.48;108548;1276;22990;-80
2022/07/21 11:43:05;;;;;;;12.10;4.20;;;;;;;35.43;18.92;100576.69;108456;1276;22286;-79